createdAt,value
2023-03-24T00:01:27.075Z,79.18
2023-03-24T00:03:55.080Z,79.03
2023-03-24T00:06:23.554Z,78.86
2023-03-24T00:08:51.615Z,79.25
2023-03-24T00:11:23.467Z,79.69
2023-03-24T00:13:51.317Z,78.04
2023-03-24T00:16:20.145Z,77.53
2023-03-24T00:18:53.968Z,77.66
2023-03-24T00:21:26.137Z,78.19
2023-03-24T00:23:56.176Z,79.16
2023-03-24T00:26:25.760Z,78.71
2023-03-24T00:28:55.413Z,78.69
2023-03-24T00:31:24.861Z,78.28
2023-03-24T00:33:55.431Z,77.92
2023-03-24T00:36:26.006Z,78.13
2023-03-24T00:38:56.951Z,78.45
2023-03-24T00:41:27.322Z,78.74
2023-03-24T00:44:00.646Z,78.26
2023-03-24T00:46:29.453Z,78.17
2023-03-24T00:49:07.566Z,77.75
2023-03-24T00:51:39.325Z,78.37
2023-03-24T00:54:09.560Z,78.52
2023-03-24T00:56:40.964Z,78.63
2023-03-24T00:59:10.977Z,79.09
2023-03-24T01:01:41.368Z,80.41
2023-03-24T01:04:10.748Z,80.29
2023-03-24T01:06:38.845Z,80.13
2023-03-24T01:09:07.718Z,80.55
2023-03-24T01:11:40.293Z,79.31
2023-03-24T01:14:09.945Z,78.71
2023-03-24T01:16:38.179Z,79.23
2023-03-24T01:19:07.409Z,80.31
2023-03-24T01:21:37.117Z,82.10
2023-03-24T01:24:05.661Z,81.88
2023-03-24T01:26:33.648Z,81.86
2023-03-24T01:29:01.878Z,82.09
2023-03-24T01:31:29.764Z,81.57
2023-03-24T01:33:57.663Z,80.69
2023-03-24T01:36:25.718Z,80.97
2023-03-24T01:38:53.576Z,80.82
2023-03-24T01:41:21.690Z,79.46
2023-03-24T01:43:50.549Z,80.06
2023-03-24T01:46:20.706Z,79.61
2023-03-24T01:49:00.129Z,79.38
2023-03-24T01:51:36.099Z,79.21
2023-03-24T01:54:14.941Z,78.98
2023-03-24T01:56:53.773Z,79.41
2023-03-24T01:59:27.509Z,79.79
2023-03-24T02:02:14.015Z,79.80
2023-03-24T02:04:54.354Z,80.60
2023-03-24T02:07:42.224Z,80.15
2023-03-24T02:10:14.279Z,81.40
2023-03-24T02:12:43.829Z,80.88
2023-03-24T02:15:14.955Z,80.59
2023-03-24T02:18:19.337Z,80.64
2023-03-24T02:21:14.919Z,80.93
2023-03-24T02:24:24.537Z,80.38
2023-03-24T02:27:07.552Z,80.36
2023-03-24T02:29:57.074Z,81.13
2023-03-24T02:32:31.123Z,80.92
2023-03-24T02:35:26.800Z,80.77
2023-03-24T02:38:13.533Z,80.46
2023-03-24T02:40:44.785Z,80.65
2023-03-24T02:43:36.112Z,80.31
2023-03-24T02:46:22.993Z,80.48
2023-03-24T02:48:51.852Z,80.86
2023-03-24T02:51:30.976Z,81.24
2023-03-24T02:56:54.372Z,81.98
2023-03-24T02:59:49.654Z,81.94
2023-03-24T03:03:06.075Z,82.12
2023-03-24T03:05:33.885Z,81.85
2023-03-24T03:08:04.962Z,81.96
2023-03-24T03:10:38.646Z,81.66
2023-03-24T03:13:13.245Z,82.23
2023-03-24T03:15:48.665Z,81.84
2023-03-24T03:18:32.375Z,81.41
2023-03-24T03:21:09.252Z,81.18
2023-03-24T03:23:51.717Z,81.85
2023-03-24T03:26:24.319Z,81.66
2023-03-24T03:28:58.297Z,81.23
2023-03-24T03:31:35.059Z,80.62
2023-03-24T03:34:31.367Z,81.20
2023-03-24T03:37:23.358Z,80.55
2023-03-24T03:40:01.543Z,80.88
2023-03-24T03:42:31.737Z,80.61
2023-03-24T03:45:05.674Z,80.21
2023-03-24T03:47:34.579Z,80.29
2023-03-24T03:50:06.294Z,80.61
2023-03-24T03:52:37.680Z,80.63
2023-03-24T03:55:07.224Z,81.64
2023-03-24T03:57:36.603Z,81.54
2023-03-24T04:00:24.134Z,81.85
2023-03-24T04:03:37.323Z,81.21
2023-03-24T04:06:14.758Z,81.25
2023-03-24T04:09:01.799Z,81.00
2023-03-24T04:12:11.854Z,81.40
2023-03-24T04:15:09.723Z,81.58
2023-03-24T04:18:25.220Z,81.66
2023-03-24T04:21:33.866Z,81.37
2023-03-24T04:24:34.950Z,81.43
2023-03-24T04:27:22.285Z,81.49
2023-03-24T04:30:10.348Z,81.24
2023-03-24T04:33:18.282Z,81.18
2023-03-24T04:35:58.222Z,81.30
2023-03-24T04:38:38.549Z,81.22
2023-03-24T04:41:43.429Z,81.11
2023-03-24T04:44:25.589Z,80.97
2023-03-24T04:47:27.250Z,81.55
2023-03-24T04:50:11.653Z,81.98
2023-03-24T04:52:42.284Z,81.77
2023-03-24T04:55:33.247Z,81.73
2023-03-24T04:58:01.993Z,82.42
2023-03-24T05:00:31.452Z,83.46
2023-03-24T05:02:59.454Z,84.34
2023-03-24T05:05:28.821Z,84.16
2023-03-24T05:08:00.460Z,83.60
2023-03-24T05:10:29.382Z,83.76
2023-03-24T05:12:58.541Z,84.08
2023-03-24T05:15:35.689Z,84.71
2023-03-24T05:18:25.135Z,85.92
2023-03-24T05:20:54.121Z,84.97
2023-03-24T05:23:23.319Z,84.32
2023-03-24T05:25:51.926Z,83.75
2023-03-24T05:28:23.735Z,84.09
2023-03-24T05:30:55.789Z,83.63
2023-03-24T05:33:38.930Z,84.76
2023-03-24T05:36:07.410Z,84.46
2023-03-24T05:38:35.993Z,84.87
2023-03-24T05:41:04.372Z,85.07
2023-03-24T05:43:36.784Z,84.68
2023-03-24T05:46:13.931Z,83.72
2023-03-24T05:48:42.407Z,83.90
2023-03-24T05:51:21.461Z,84.09
2023-03-24T05:53:58.825Z,84.72
2023-03-24T05:56:33.271Z,84.33
2023-03-24T05:59:23.056Z,85.75
2023-03-24T06:01:57.057Z,85.10
2023-03-24T06:04:57.794Z,84.94
2023-03-24T06:07:30.921Z,84.97
2023-03-24T06:10:03.716Z,84.07
2023-03-24T06:12:42.052Z,84.09
2023-03-24T06:15:10.803Z,83.62
2023-03-24T06:17:38.984Z,82.25
2023-03-24T06:20:18.919Z,81.23
2023-03-24T06:23:07.039Z,81.48
2023-03-24T06:26:01.952Z,82.02
2023-03-24T06:28:34.753Z,80.84
2023-03-24T06:31:18.742Z,81.54
2023-03-24T06:33:47.845Z,81.71
2023-03-24T06:36:16.547Z,83.04
2023-03-24T06:38:45.759Z,82.20
2023-03-24T06:41:17.970Z,82.01
2023-03-24T06:43:47.504Z,81.28
2023-03-24T06:46:15.712Z,80.13
2023-03-24T06:48:47.404Z,78.26
2023-03-24T06:51:15.581Z,78.09
2023-03-24T06:53:45.938Z,78.52
2023-03-24T06:56:17.847Z,78.75
2023-03-24T06:58:51.797Z,77.48
2023-03-24T07:01:27.086Z,76.56
2023-03-24T07:04:18.584Z,75.96
2023-03-24T07:06:58.627Z,76.00
2023-03-24T07:09:34.981Z,74.42
2023-03-24T07:12:03.850Z,75.37
2023-03-24T07:14:32.204Z,71.58
2023-03-24T07:17:02.638Z,66.02
2023-03-24T07:19:42.559Z,57.41
2023-03-24T07:22:33.580Z,48.73
2023-03-24T07:25:20.256Z,41.61
2023-03-24T07:27:56.670Z,37.65
2023-03-24T07:30:37.344Z,35.15
2023-03-24T07:33:12.846Z,33.63
2023-03-24T07:35:44.360Z,32.39
2023-03-24T07:38:13.177Z,30.15
2023-03-24T07:40:41.387Z,29.49
2023-03-24T07:43:09.435Z,27.46
2023-03-24T07:46:00.902Z,26.94
2023-03-24T07:48:30.023Z,25.18
2023-03-24T07:50:57.991Z,24.58
2023-03-24T07:53:45.832Z,24.03
2023-03-24T07:56:17.161Z,24.18
2023-03-24T07:58:53.109Z,23.47
2023-03-24T08:01:37.121Z,22.75
2023-03-24T08:04:12.368Z,23.03
2023-03-24T08:07:05.511Z,23.61
2023-03-24T08:09:33.487Z,22.49
2023-03-24T08:12:09.989Z,22.06
2023-03-24T08:14:45.900Z,21.78
2023-03-24T08:17:13.794Z,21.26
2023-03-24T08:19:56.173Z,20.56
2023-03-24T08:22:27.963Z,20.35
2023-03-24T08:32:36.292Z,20.25
2023-03-24T08:35:05.290Z,19.03
2023-03-24T08:37:33.293Z,19.19
2023-03-24T08:40:05.621Z,19.41
2023-03-24T08:42:33.724Z,18.92
2023-03-24T08:45:02.201Z,19.78
2023-03-24T08:47:30.265Z,17.90
2023-03-24T08:50:01.597Z,18.84
2023-03-24T08:52:30.008Z,19.04
2023-03-24T08:54:57.861Z,18.78
2023-03-24T08:57:26.323Z,17.86
2023-03-24T08:59:54.782Z,17.32
2023-03-24T09:02:22.927Z,15.86
2023-03-24T09:04:54.174Z,15.93
2023-03-24T09:07:22.538Z,17.07
2023-03-24T09:09:50.525Z,17.59
2023-03-24T09:12:18.432Z,18.79
2023-03-24T09:14:50.660Z,19.99
2023-03-24T09:17:19.147Z,18.57
2023-03-24T09:19:47.585Z,20.16
2023-03-24T09:22:15.788Z,20.61
2023-03-24T09:24:44.630Z,20.45
2023-03-24T09:27:12.564Z,22.22
2023-03-24T09:29:40.844Z,21.05
2023-03-24T09:32:09.022Z,21.61
2023-03-24T09:34:38.524Z,23.20
2023-03-24T09:37:06.386Z,21.25
2023-03-24T09:39:36.825Z,20.54
2023-03-24T09:42:07.239Z,20.32
2023-03-24T09:44:43.600Z,20.38
2023-03-24T09:47:26.948Z,19.82
2023-03-24T09:49:58.116Z,19.14
2023-03-24T09:52:38.377Z,18.23
2023-03-24T09:55:12.342Z,18.75
2023-03-24T09:57:43.764Z,18.82
2023-03-24T10:00:18.317Z,19.46
2023-03-24T10:02:47.703Z,19.04
2023-03-24T10:05:32.763Z,19.58
2023-03-24T10:08:03.776Z,20.13
2023-03-24T10:10:46.921Z,20.74
2023-03-24T10:13:27.889Z,22.06
2023-03-24T10:16:13.400Z,23.15
2023-03-24T10:19:05.229Z,23.53
2023-03-24T10:23:39.578Z,24.48
2023-03-24T10:26:27.207Z,25.06
2023-03-24T10:29:23.911Z,25.33
2023-03-24T10:31:59.507Z,26.67
2023-03-24T10:34:31.057Z,26.78
2023-03-24T10:37:03.142Z,26.95
2023-03-24T10:39:44.233Z,26.64
2023-03-24T10:42:26.718Z,26.63
2023-03-24T10:44:54.999Z,25.71
2023-03-24T10:47:27.429Z,26.54
2023-03-24T10:50:12.704Z,26.77
2023-03-24T10:52:45.668Z,26.12
2023-03-24T10:55:19.988Z,25.58
2023-03-24T10:57:51.340Z,25.46
2023-03-24T11:00:27.006Z,25.75
2023-03-24T11:03:01.905Z,25.26
2023-03-24T11:05:33.623Z,26.97
2023-03-24T11:08:37.334Z,26.40
2023-03-24T11:11:15.752Z,26.87
2023-03-24T11:13:57.196Z,27.05
2023-03-24T11:16:44.273Z,26.76
2023-03-24T11:19:23.596Z,27.13
2023-03-24T11:21:57.584Z,27.32
2023-03-24T11:24:28.110Z,26.15
2023-03-24T11:27:00.721Z,27.33
2023-03-24T11:29:30.883Z,27.39
2023-03-24T11:32:02.061Z,26.07
2023-03-24T11:34:39.036Z,27.37
2023-03-24T11:37:33.624Z,27.73
2023-03-24T11:40:13.543Z,27.84
2023-03-24T11:42:45.977Z,27.37
2023-03-24T11:45:38.213Z,27.77
2023-03-24T11:48:26.678Z,28.12
2023-03-24T11:50:57.776Z,27.91
2023-03-24T11:53:51.842Z,27.32
2023-03-24T11:56:56.773Z,28.01
2023-03-24T11:59:24.731Z,27.55
2023-03-24T12:02:07.898Z,26.56
2023-03-24T12:04:59.863Z,25.67
2023-03-24T12:07:43.533Z,26.46
2023-03-24T12:10:39.336Z,25.49
2023-03-24T12:13:32.424Z,26.63
2023-03-24T12:16:24.168Z,27.30
2023-03-24T12:19:21.920Z,25.96
2023-03-24T12:22:23.256Z,25.02
2023-03-24T12:25:17.482Z,26.22
2023-03-24T12:27:46.299Z,26.18
2023-03-24T12:30:29.133Z,26.54
2023-03-24T12:33:29.020Z,25.95
2023-03-24T12:36:02.353Z,27.07
2023-03-24T12:39:05.344Z,28.93
2023-03-24T12:41:33.430Z,29.64
2023-03-24T12:44:30.104Z,29.49
2023-03-24T12:47:21.810Z,30.15
2023-03-24T12:49:57.671Z,29.47
2023-03-24T12:55:51.988Z,28.31
2023-03-24T12:58:22.996Z,29.15
2023-03-24T13:01:13.554Z,28.75
2023-03-24T13:03:45.759Z,29.13
2023-03-24T13:06:23.196Z,30.00
2023-03-24T13:09:32.005Z,28.86
2023-03-24T13:12:10.755Z,28.87
2023-03-24T13:15:00.665Z,28.65
2023-03-24T13:17:35.141Z,28.95
2023-03-24T13:20:08.413Z,29.64
2023-03-24T13:22:38.577Z,29.65
2023-03-24T13:25:31.398Z,30.26
2023-03-24T13:28:07.444Z,30.64
2023-03-24T13:30:38.805Z,31.83
2023-03-24T13:33:19.139Z,29.18
2023-03-24T13:36:02.023Z,31.13
2023-03-24T13:38:46.998Z,29.70
2023-03-24T13:41:22.174Z,29.75
2023-03-24T13:43:58.320Z,29.26
2023-03-24T13:46:27.053Z,29.19
2023-03-24T13:49:01.166Z,31.05
2023-03-24T13:51:40.533Z,30.59
2023-03-24T13:54:19.516Z,29.28
2023-03-24T13:57:05.800Z,29.53
2023-03-24T14:00:02.527Z,29.14
2023-03-24T14:02:52.939Z,29.12
2023-03-24T14:05:26.723Z,29.21
2023-03-24T14:08:01.353Z,29.96
2023-03-24T14:10:41.180Z,31.16
2023-03-24T14:13:12.199Z,30.94
2023-03-24T14:15:52.497Z,31.03
2023-03-24T14:18:23.505Z,31.13
2023-03-24T14:20:57.804Z,31.22
2023-03-24T14:23:40.587Z,31.22
2023-03-24T14:26:21.765Z,31.89
2023-03-24T14:28:54.836Z,32.13
2023-03-24T14:31:33.769Z,31.77
2023-03-24T14:34:25.637Z,30.63
2023-03-24T14:37:04.098Z,30.51
2023-03-24T14:39:44.946Z,30.72
2023-03-24T14:42:29.741Z,31.72
2023-03-24T14:45:07.511Z,31.48
2023-03-24T14:47:42.857Z,32.03
2023-03-24T14:50:13.561Z,31.27
2023-03-24T14:52:45.967Z,30.82
2023-03-24T14:55:20.128Z,31.40
2023-03-24T14:57:53.496Z,31.59
2023-03-24T15:00:42.254Z,32.78
2023-03-24T15:03:40.403Z,33.66
2023-03-24T15:06:11.407Z,32.04
2023-03-24T15:08:39.484Z,32.98
2023-03-24T15:11:10.604Z,33.12
2023-03-24T15:13:45.880Z,33.59
2023-03-24T15:16:14.138Z,34.21
2023-03-24T15:19:20.251Z,33.34
2023-03-24T15:21:51.348Z,34.83
2023-03-24T15:24:22.986Z,34.31
2023-03-24T15:27:04.750Z,35.06
2023-03-24T15:29:34.447Z,37.06
2023-03-24T15:32:02.867Z,38.09
2023-03-24T15:34:34.324Z,37.42
2023-03-24T15:37:05.892Z,37.62
2023-03-24T15:39:39.177Z,38.71
2023-03-24T15:42:14.740Z,37.92
2023-03-24T15:44:43.090Z,38.22
2023-03-24T15:47:22.276Z,38.84
2023-03-24T15:49:56.550Z,39.27
2023-03-24T15:52:36.912Z,40.62
2023-03-24T15:55:29.559Z,41.78
2023-03-24T15:58:01.950Z,40.68
2023-03-24T16:00:39.373Z,41.10
2023-03-24T16:03:08.503Z,42.09
2023-03-24T16:05:45.898Z,43.18
2023-03-24T16:08:39.416Z,43.21
2023-03-24T16:11:13.077Z,41.67
2023-03-24T16:13:45.186Z,41.60
2023-03-24T16:16:16.367Z,41.50
2023-03-24T16:18:47.315Z,42.14
2023-03-24T16:21:20.492Z,42.14
2023-03-24T16:23:51.304Z,42.84
2023-03-24T16:26:24.677Z,43.03
2023-03-24T16:28:54.011Z,43.60
2023-03-24T16:31:31.444Z,44.15
2023-03-24T16:33:59.763Z,45.23
2023-03-24T16:36:28.642Z,45.71
2023-03-24T16:38:59.080Z,45.82
2023-03-24T16:41:28.618Z,45.57
2023-03-24T16:43:56.931Z,46.11
2023-03-24T16:46:28.110Z,46.07
2023-03-24T16:48:56.548Z,46.54
2023-03-24T16:51:25.061Z,46.86
2023-03-24T16:53:54.139Z,47.05
2023-03-24T16:56:23.349Z,48.36
2023-03-24T16:58:56.721Z,49.67
2023-03-24T17:01:39.909Z,50.74
2023-03-24T17:04:22.733Z,51.06
2023-03-24T17:06:54.684Z,51.33
2023-03-24T17:09:23.322Z,51.03
2023-03-24T17:11:57.708Z,51.61
2023-03-24T17:14:26.355Z,52.05
2023-03-24T17:16:54.589Z,52.80
2023-03-24T17:19:25.041Z,52.27
2023-03-24T17:22:05.122Z,52.95
2023-03-24T17:24:42.072Z,53.78
2023-03-24T17:27:18.264Z,53.90
2023-03-24T17:29:46.853Z,54.16
2023-03-24T17:32:15.141Z,53.96
2023-03-24T17:34:45.190Z,53.78
2023-03-24T17:37:13.750Z,54.46
2023-03-24T17:39:42.422Z,55.17
2023-03-24T17:42:10.817Z,55.18
2023-03-24T17:44:39.377Z,55.09
2023-03-24T17:47:07.884Z,56.04
2023-03-24T17:49:37.716Z,56.94
2023-03-24T17:52:06.435Z,56.92
2023-03-24T17:54:34.880Z,57.13
2023-03-24T17:57:03.441Z,57.33
2023-03-24T17:59:32.010Z,57.87
2023-03-24T18:02:00.663Z,57.49
2023-03-24T18:04:29.347Z,57.76
2023-03-24T18:06:57.679Z,58.08
2023-03-24T18:09:27.286Z,58.33
2023-03-24T18:11:55.480Z,59.09
2023-03-24T18:14:23.386Z,58.46
2023-03-24T18:16:51.352Z,58.55
2023-03-24T18:19:19.531Z,58.52
2023-03-24T18:21:47.630Z,58.65
2023-03-24T18:24:16.230Z,58.74
2023-03-24T18:26:44.150Z,59.13
2023-03-24T18:29:12.603Z,59.39
2023-03-24T18:31:40.757Z,59.91
2023-03-24T18:34:08.912Z,60.16
2023-03-24T18:36:37.056Z,60.35
2023-03-24T18:39:08.107Z,60.92
2023-03-24T18:41:39.734Z,60.10
2023-03-24T18:44:11.458Z,60.12
2023-03-24T18:46:39.720Z,61.72
2023-03-24T18:49:08.238Z,62.02
2023-03-24T18:51:36.389Z,62.53
2023-03-24T18:54:04.563Z,62.51
2023-03-24T18:56:32.892Z,62.04
2023-03-24T18:59:01.102Z,61.22
2023-03-24T19:01:30.482Z,61.15
2023-03-24T19:03:58.469Z,60.34
2023-03-24T19:06:31.486Z,60.51
2023-03-24T19:09:00.008Z,61.01
2023-03-24T19:11:28.101Z,61.35
2023-03-24T19:13:57.221Z,62.13
2023-03-24T19:16:26.280Z,61.32
2023-03-24T19:18:58.081Z,61.83
2023-03-24T19:21:27.758Z,62.03
2023-03-24T19:23:57.211Z,62.01
2023-03-24T19:26:26.212Z,62.45
2023-03-24T19:28:54.326Z,62.22
2023-03-24T19:31:24.916Z,62.53
2023-03-24T19:33:53.884Z,62.86
2023-03-24T19:36:21.672Z,63.07
2023-03-24T19:38:49.701Z,63.29
2023-03-24T19:41:17.692Z,63.02
2023-03-24T19:43:45.984Z,63.14
2023-03-24T19:46:14.009Z,62.93
2023-03-24T19:48:41.942Z,63.49
2023-03-24T19:51:09.873Z,63.15
2023-03-24T19:53:38.119Z,63.41
2023-03-24T19:56:06.826Z,63.62
2023-03-24T19:58:35.636Z,63.59
2023-03-24T20:01:04.209Z,63.36
2023-03-24T20:03:32.491Z,63.87
2023-03-24T20:06:05.381Z,63.60
2023-03-24T20:08:33.422Z,63.59
2023-03-24T20:11:03.907Z,64.04
2023-03-24T20:13:31.954Z,63.56
2023-03-24T20:15:59.967Z,64.20
2023-03-24T20:18:28.128Z,64.55
2023-03-24T20:20:57.241Z,64.71
2023-03-24T20:23:25.135Z,65.01
2023-03-24T20:25:53.390Z,64.72
2023-03-24T20:28:21.526Z,64.49
2023-03-24T20:30:49.634Z,64.47
2023-03-24T20:33:17.606Z,64.74
2023-03-24T20:35:45.985Z,64.98
2023-03-24T20:38:14.148Z,64.62
2023-03-24T20:40:42.142Z,65.32
2023-03-24T20:43:10.188Z,66.41
2023-03-24T20:45:41.279Z,65.08
2023-03-24T20:48:09.596Z,65.30
2023-03-24T20:50:38.442Z,65.45
2023-03-24T20:53:07.800Z,65.59
2023-03-24T20:55:36.719Z,65.72
2023-03-24T20:58:08.618Z,66.22
2023-03-24T21:00:46.329Z,67.18
2023-03-24T21:03:15.086Z,66.57
2023-03-24T21:05:43.684Z,66.52
2023-03-24T21:08:12.165Z,66.43
2023-03-24T21:10:40.931Z,66.84
2023-03-24T21:13:09.330Z,66.83
2023-03-24T21:15:45.536Z,66.74
2023-03-24T21:18:14.143Z,66.87
2023-03-24T21:20:56.428Z,66.93
2023-03-24T21:23:25.487Z,66.99
2023-03-24T21:25:53.796Z,67.35
2023-03-24T21:28:22.576Z,67.59
2023-03-24T21:30:51.035Z,67.48
2023-03-24T21:33:19.618Z,67.96
2023-03-24T21:35:47.916Z,68.35
2023-03-24T21:38:16.516Z,67.80
2023-03-24T21:40:44.835Z,67.62
2023-03-24T21:43:15.081Z,68.52
2023-03-24T21:45:46.597Z,68.53
2023-03-24T21:48:16.593Z,68.85
2023-03-24T21:50:44.785Z,69.23
2023-03-24T21:53:15.461Z,69.81
2023-03-24T21:56:04.863Z,69.48
2023-03-24T21:58:33.860Z,68.72
2023-03-24T22:01:02.565Z,69.36
2023-03-24T22:03:34.739Z,68.80
2023-03-24T22:06:05.698Z,68.57
2023-03-24T22:08:34.267Z,69.37
2023-03-24T22:11:04.599Z,69.72
2023-03-24T22:13:33.650Z,69.33
2023-03-24T22:16:02.790Z,68.96
2023-03-24T22:18:32.794Z,68.87
2023-03-24T22:21:13.115Z,69.61
2023-03-24T22:23:42.970Z,70.24
2023-03-24T22:26:17.090Z,69.42
2023-03-24T22:28:45.621Z,69.96
2023-03-24T22:31:16.941Z,69.45
2023-03-24T22:33:45.645Z,70.92
2023-03-24T22:36:13.610Z,69.87
2023-03-24T22:38:42.535Z,70.64
2023-03-24T22:41:13.034Z,70.93
2023-03-24T22:43:42.068Z,70.06
2023-03-24T22:46:11.393Z,70.37
2023-03-24T22:48:39.465Z,70.23
2023-03-24T22:51:08.992Z,70.47
2023-03-24T22:53:37.112Z,70.58
2023-03-24T22:56:06.444Z,71.13
2023-03-24T22:58:36.009Z,71.77
2023-03-24T23:01:05.007Z,71.92
2023-03-24T23:03:33.687Z,72.15
2023-03-24T23:06:02.796Z,72.14
2023-03-24T23:08:32.911Z,71.90
2023-03-24T23:11:01.235Z,70.83
2023-03-24T23:13:30.957Z,70.75
2023-03-24T23:15:59.245Z,71.29
2023-03-24T23:18:27.180Z,71.37
2023-03-24T23:21:03.504Z,71.91
2023-03-24T23:23:31.957Z,71.99
2023-03-24T23:26:00.326Z,71.71
2023-03-24T23:37:50.717Z,74.51
2023-03-24T23:40:19.402Z,74.68
2023-03-24T23:42:48.531Z,74.91
2023-03-24T23:45:18.269Z,74.76
2023-03-24T23:47:49.909Z,75.12
2023-03-24T23:50:19.340Z,75.25
2023-03-24T23:52:48.119Z,74.50
2023-03-24T23:55:18.176Z,75.27
2023-03-24T23:57:46.929Z,74.53
